sensor_id;sensor_type;location;lat;lon;timestamp;P1;durP1;ratioP1;P2;durP2;ratioP2
5345;SDS011;2695;49.444;11.054;2023-07-28T00:01:11;5.50;;;4.10;;
5345;SDS011;2695;49.444;11.054;2023-07-28T00:03:39;4.83;;;4.27;;
5345;SDS011;2695;49.444;11.054;2023-07-28T00:06:09;5.00;;;3.57;;
5345;SDS011;2695;49.444;11.054;2023-07-28T00:08:37;4.07;;;3.50;;
5345;SDS011;2695;49.444;11.054;2023-07-28T00:11:08;4.17;;;3.77;;
5345;SDS011;2695;49.444;11.054;2023-07-28T00:13:37;6.10;;;4.37;;
5345;SDS011;2695;49.444;11.054;2023-07-28T00:16:06;6.30;;;4.00;;
5345;SDS011;2695;49.444;11.054;2023-07-28T00:18:34;5.00;;;3.70;;
5345;SDS011;2695;49.444;11.054;2023-07-28T00:21:04;4.50;;;3.77;;
5345;SDS011;2695;49.444;11.054;2023-07-28T00:23:34;4.10;;;3.70;;
5345;SDS011;2695;49.444;11.054;2023-07-28T00:26:01;7.77;;;3.87;;
5345;SDS011;2695;49.444;11.054;2023-07-28T00:28:30;5.87;;;3.80;;
5345;SDS011;2695;49.444;11.054;2023-07-28T00:30:58;5.10;;;4.00;;
5345;SDS011;2695;49.444;11.054;2023-07-28T00:33:26;4.27;;;3.70;;
5345;SDS011;2695;49.444;11.054;2023-07-28T00:35:54;5.73;;;3.97;;
5345;SDS011;2695;49.444;11.054;2023-07-28T00:38:22;8.90;;;3.80;;
5345;SDS011;2695;49.444;11.054;2023-07-28T00:40:51;6.10;;;4.63;;
5345;SDS011;2695;49.444;11.054;2023-07-28T00:43:19;5.00;;;3.50;;
5345;SDS011;2695;49.444;11.054;2023-07-28T00:45:47;4.57;;;3.73;;
5345;SDS011;2695;49.444;11.054;2023-07-28T00:48:16;5.90;;;4.10;;
5345;SDS011;2695;49.444;11.054;2023-07-28T00:50:44;4.37;;;3.87;;
5345;SDS011;2695;49.444;11.054;2023-07-28T00:53:14;4.90;;;3.80;;
5345;SDS011;2695;49.444;11.054;2023-07-28T00:55:42;6.10;;;4.10;;
5345;SDS011;2695;49.444;11.054;2023-07-28T00:58:11;6.53;;;4.00;;
5345;SDS011;2695;49.444;11.054;2023-07-28T01:00:40;4.87;;;3.50;;
5345;SDS011;2695;49.444;11.054;2023-07-28T01:03:08;7.23;;;4.07;;
5345;SDS011;2695;49.444;11.054;2023-07-28T01:05:39;5.27;;;4.07;;
5345;SDS011;2695;49.444;11.054;2023-07-28T01:08:11;6.07;;;3.80;;
5345;SDS011;2695;49.444;11.054;2023-07-28T01:10:44;4.47;;;3.80;;
5345;SDS011;2695;49.444;11.054;2023-07-28T01:13:14;4.50;;;3.40;;
5345;SDS011;2695;49.444;11.054;2023-07-28T01:15:42;4.73;;;4.23;;
5345;SDS011;2695;49.444;11.054;2023-07-28T01:18:10;5.50;;;3.90;;
5345;SDS011;2695;49.444;11.054;2023-07-28T01:20:39;7.93;;;3.80;;
5345;SDS011;2695;49.444;11.054;2023-07-28T01:23:09;5.70;;;3.70;;
5345;SDS011;2695;49.444;11.054;2023-07-28T01:25:55;4.70;;;3.80;;
5345;SDS011;2695;49.444;11.054;2023-07-28T01:28:31;5.47;;;4.37;;
5345;SDS011;2695;49.444;11.054;2023-07-28T01:31:01;6.27;;;4.60;;
5345;SDS011;2695;49.444;11.054;2023-07-28T01:33:30;6.20;;;4.57;;
5345;SDS011;2695;49.444;11.054;2023-07-28T01:35:58;7.00;;;4.37;;
5345;SDS011;2695;49.444;11.054;2023-07-28T01:38:27;5.80;;;4.43;;
5345;SDS011;2695;49.444;11.054;2023-07-28T01:40:55;5.27;;;4.00;;
5345;SDS011;2695;49.444;11.054;2023-07-28T01:43:23;5.60;;;3.60;;
5345;SDS011;2695;49.444;11.054;2023-07-28T01:45:53;8.23;;;3.93;;
5345;SDS011;2695;49.444;11.054;2023-07-28T01:48:21;6.37;;;4.90;;
5345;SDS011;2695;49.444;11.054;2023-07-28T01:50:51;4.77;;;4.37;;
5345;SDS011;2695;49.444;11.054;2023-07-28T01:53:24;5.17;;;4.00;;
5345;SDS011;2695;49.444;11.054;2023-07-28T01:55:55;8.00;;;4.43;;
5345;SDS011;2695;49.444;11.054;2023-07-28T01:58:23;6.27;;;4.23;;
5345;SDS011;2695;49.444;11.054;2023-07-28T02:00:53;6.13;;;4.87;;
5345;SDS011;2695;49.444;11.054;2023-07-28T02:03:22;5.97;;;4.60;;
5345;SDS011;2695;49.444;11.054;2023-07-28T02:05:50;7.17;;;4.50;;
5345;SDS011;2695;49.444;11.054;2023-07-28T02:08:23;4.00;;;3.60;;
5345;SDS011;2695;49.444;11.054;2023-07-28T02:10:53;7.53;;;4.80;;
5345;SDS011;2695;49.444;11.054;2023-07-28T02:13:21;4.80;;;4.20;;
5345;SDS011;2695;49.444;11.054;2023-07-28T02:15:49;6.77;;;4.13;;
5345;SDS011;2695;49.444;11.054;2023-07-28T02:18:18;6.30;;;3.93;;
5345;SDS011;2695;49.444;11.054;2023-07-28T02:20:48;7.80;;;4.03;;
5345;SDS011;2695;49.444;11.054;2023-07-28T02:23:16;6.03;;;4.60;;
5345;SDS011;2695;49.444;11.054;2023-07-28T02:25:44;5.67;;;4.43;;
5345;SDS011;2695;49.444;11.054;2023-07-28T02:28:13;4.33;;;3.93;;
5345;SDS011;2695;49.444;11.054;2023-07-28T02:30:41;6.13;;;4.30;;
5345;SDS011;2695;49.444;11.054;2023-07-28T02:33:11;7.87;;;4.80;;
5345;SDS011;2695;49.444;11.054;2023-07-28T02:35:40;6.53;;;4.87;;
5345;SDS011;2695;49.444;11.054;2023-07-28T02:38:09;4.87;;;4.20;;
5345;SDS011;2695;49.444;11.054;2023-07-28T02:40:37;6.80;;;5.00;;
5345;SDS011;2695;49.444;11.054;2023-07-28T02:43:05;8.37;;;4.33;;
5345;SDS011;2695;49.444;11.054;2023-07-28T02:45:33;6.10;;;4.90;;
5345;SDS011;2695;49.444;11.054;2023-07-28T02:48:05;7.07;;;5.13;;
5345;SDS011;2695;49.444;11.054;2023-07-28T02:50:33;5.80;;;5.20;;
5345;SDS011;2695;49.444;11.054;2023-07-28T02:53:06;5.77;;;4.20;;
5345;SDS011;2695;49.444;11.054;2023-07-28T02:55:40;5.90;;;5.17;;
5345;SDS011;2695;49.444;11.054;2023-07-28T02:58:08;6.80;;;4.60;;
5345;SDS011;2695;49.444;11.054;2023-07-28T03:00:40;5.63;;;4.90;;
5345;SDS011;2695;49.444;11.054;2023-07-28T03:03:08;5.80;;;4.27;;
5345;SDS011;2695;49.444;11.054;2023-07-28T03:05:38;8.47;;;5.30;;
5345;SDS011;2695;49.444;11.054;2023-07-28T03:08:08;17.97;;;5.40;;
5345;SDS011;2695;49.444;11.054;2023-07-28T03:10:36;5.50;;;5.00;;
5345;SDS011;2695;49.444;11.054;2023-07-28T03:13:07;6.47;;;5.30;;
5345;SDS011;2695;49.444;11.054;2023-07-28T03:15:35;5.70;;;4.50;;
5345;SDS011;2695;49.444;11.054;2023-07-28T03:18:04;8.90;;;5.20;;
5345;SDS011;2695;49.444;11.054;2023-07-28T03:20:33;5.80;;;4.90;;
5345;SDS011;2695;49.444;11.054;2023-07-28T03:23:02;5.67;;;5.03;;
5345;SDS011;2695;49.444;11.054;2023-07-28T03:25:31;6.43;;;4.77;;
5345;SDS011;2695;49.444;11.054;2023-07-28T03:28:03;6.20;;;5.60;;
5345;SDS011;2695;49.444;11.054;2023-07-28T03:30:37;6.50;;;5.70;;
5345;SDS011;2695;49.444;11.054;2023-07-28T03:33:09;8.50;;;6.10;;
5345;SDS011;2695;49.444;11.054;2023-07-28T03:35:37;8.47;;;6.13;;
5345;SDS011;2695;49.444;11.054;2023-07-28T03:38:05;6.43;;;5.83;;
5345;SDS011;2695;49.444;11.054;2023-07-28T03:40:34;10.40;;;5.80;;
5345;SDS011;2695;49.444;11.054;2023-07-28T03:43:03;8.63;;;5.90;;
5345;SDS011;2695;49.444;11.054;2023-07-28T03:45:31;8.63;;;7.10;;
5345;SDS011;2695;49.444;11.054;2023-07-28T03:47:59;6.53;;;5.90;;
5345;SDS011;2695;49.444;11.054;2023-07-28T03:50:27;6.67;;;5.57;;
5345;SDS011;2695;49.444;11.054;2023-07-28T03:52:55;7.50;;;6.17;;
5345;SDS011;2695;49.444;11.054;2023-07-28T03:55:23;8.70;;;5.60;;
5345;SDS011;2695;49.444;11.054;2023-07-28T03:57:52;8.37;;;5.50;;
5345;SDS011;2695;49.444;11.054;2023-07-28T04:00:21;5.33;;;4.40;;
5345;SDS011;2695;49.444;11.054;2023-07-28T04:02:49;11.77;;;5.40;;
5345;SDS011;2695;49.444;11.054;2023-07-28T04:05:18;8.10;;;5.13;;
5345;SDS011;2695;49.444;11.054;2023-07-28T04:07:46;7.30;;;6.00;;
5345;SDS011;2695;49.444;11.054;2023-07-28T04:10:14;8.00;;;6.00;;
5345;SDS011;2695;49.444;11.054;2023-07-28T04:12:44;6.80;;;5.00;;
5345;SDS011;2695;49.444;11.054;2023-07-28T04:15:14;7.97;;;5.50;;
5345;SDS011;2695;49.444;11.054;2023-07-28T04:17:42;5.37;;;4.87;;
5345;SDS011;2695;49.444;11.054;2023-07-28T04:20:13;8.63;;;5.27;;
5345;SDS011;2695;49.444;11.054;2023-07-28T04:22:43;9.30;;;5.47;;
5345;SDS011;2695;49.444;11.054;2023-07-28T04:25:13;5.10;;;4.27;;
5345;SDS011;2695;49.444;11.054;2023-07-28T04:27:57;6.97;;;5.00;;
5345;SDS011;2695;49.444;11.054;2023-07-28T04:30:26;7.70;;;4.77;;
5345;SDS011;2695;49.444;11.054;2023-07-28T04:32:54;6.80;;;5.37;;
5345;SDS011;2695;49.444;11.054;2023-07-28T04:35:22;15.10;;;5.40;;
5345;SDS011;2695;49.444;11.054;2023-07-28T04:37:51;7.07;;;4.97;;
5345;SDS011;2695;49.444;11.054;2023-07-28T04:40:21;8.57;;;5.30;;
5345;SDS011;2695;49.444;11.054;2023-07-28T04:42:51;8.43;;;5.67;;
5345;SDS011;2695;49.444;11.054;2023-07-28T04:45:20;8.47;;;5.23;;
5345;SDS011;2695;49.444;11.054;2023-07-28T04:47:49;9.67;;;5.30;;
5345;SDS011;2695;49.444;11.054;2023-07-28T04:50:18;6.60;;;5.17;;
5345;SDS011;2695;49.444;11.054;2023-07-28T04:52:49;6.00;;;5.10;;
5345;SDS011;2695;49.444;11.054;2023-07-28T04:55:18;7.50;;;5.40;;
5345;SDS011;2695;49.444;11.054;2023-07-28T04:57:46;6.17;;;4.57;;
5345;SDS011;2695;49.444;11.054;2023-07-28T05:00:15;10.23;;;5.50;;
5345;SDS011;2695;49.444;11.054;2023-07-28T05:02:43;7.30;;;4.77;;
5345;SDS011;2695;49.444;11.054;2023-07-28T05:05:14;6.13;;;5.30;;
5345;SDS011;2695;49.444;11.054;2023-07-28T05:07:42;6.33;;;5.33;;
5345;SDS011;2695;49.444;11.054;2023-07-28T05:10:12;12.50;;;5.70;;
5345;SDS011;2695;49.444;11.054;2023-07-28T05:12:40;8.43;;;5.23;;
5345;SDS011;2695;49.444;11.054;2023-07-28T05:15:09;7.50;;;5.67;;
5345;SDS011;2695;49.444;11.054;2023-07-28T05:17:37;7.67;;;5.00;;
5345;SDS011;2695;49.444;11.054;2023-07-28T05:20:05;6.30;;;5.20;;
5345;SDS011;2695;49.444;11.054;2023-07-28T05:22:35;6.97;;;4.80;;
5345;SDS011;2695;49.444;11.054;2023-07-28T05:25:04;6.43;;;5.20;;
5345;SDS011;2695;49.444;11.054;2023-07-28T05:27:33;6.90;;;5.50;;
5345;SDS011;2695;49.444;11.054;2023-07-28T05:30:02;10.97;;;4.90;;
5345;SDS011;2695;49.444;11.054;2023-07-28T05:32:30;6.10;;;5.00;;
5345;SDS011;2695;49.444;11.054;2023-07-28T05:34:58;7.80;;;5.70;;
5345;SDS011;2695;49.444;11.054;2023-07-28T05:37:26;7.60;;;5.87;;
5345;SDS011;2695;49.444;11.054;2023-07-28T05:39:58;11.17;;;6.70;;
5345;SDS011;2695;49.444;11.054;2023-07-28T05:42:29;6.50;;;5.80;;
5345;SDS011;2695;49.444;11.054;2023-07-28T05:44:58;11.10;;;6.47;;
5345;SDS011;2695;49.444;11.054;2023-07-28T05:47:32;7.90;;;5.10;;
5345;SDS011;2695;49.444;11.054;2023-07-28T05:50:00;8.40;;;6.07;;
5345;SDS011;2695;49.444;11.054;2023-07-28T05:52:30;10.03;;;5.50;;
5345;SDS011;2695;49.444;11.054;2023-07-28T05:55:00;6.63;;;5.17;;
5345;SDS011;2695;49.444;11.054;2023-07-28T05:57:28;8.50;;;6.20;;
5345;SDS011;2695;49.444;11.054;2023-07-28T05:59:57;7.70;;;5.97;;
5345;SDS011;2695;49.444;11.054;2023-07-28T06:02:25;7.87;;;5.73;;
5345;SDS011;2695;49.444;11.054;2023-07-28T06:04:53;6.23;;;5.30;;
5345;SDS011;2695;49.444;11.054;2023-07-28T06:07:36;7.50;;;5.90;;
5345;SDS011;2695;49.444;11.054;2023-07-28T06:10:08;9.07;;;5.50;;
5345;SDS011;2695;49.444;11.054;2023-07-28T06:12:41;6.67;;;5.97;;
5345;SDS011;2695;49.444;11.054;2023-07-28T06:15:18;9.50;;;6.23;;
5345;SDS011;2695;49.444;11.054;2023-07-28T06:17:46;10.37;;;6.13;;
5345;SDS011;2695;49.444;11.054;2023-07-28T06:20:15;6.10;;;4.97;;
5345;SDS011;2695;49.444;11.054;2023-07-28T06:22:46;10.30;;;5.90;;
5345;SDS011;2695;49.444;11.054;2023-07-28T06:25:18;8.80;;;5.00;;
5345;SDS011;2695;49.444;11.054;2023-07-28T06:27:46;10.43;;;5.47;;
5345;SDS011;2695;49.444;11.054;2023-07-28T06:30:14;7.20;;;5.90;;
5345;SDS011;2695;49.444;11.054;2023-07-28T06:32:42;8.10;;;5.67;;
5345;SDS011;2695;49.444;11.054;2023-07-28T06:35:11;13.07;;;5.43;;
5345;SDS011;2695;49.444;11.054;2023-07-28T06:37:41;9.10;;;5.33;;
5345;SDS011;2695;49.444;11.054;2023-07-28T06:40:09;7.50;;;5.77;;
5345;SDS011;2695;49.444;11.054;2023-07-28T06:42:39;7.60;;;5.53;;
5345;SDS011;2695;49.444;11.054;2023-07-28T06:45:08;9.07;;;5.37;;
5345;SDS011;2695;49.444;11.054;2023-07-28T06:47:36;7.10;;;5.10;;
5345;SDS011;2695;49.444;11.054;2023-07-28T06:50:04;8.93;;;5.50;;
5345;SDS011;2695;49.444;11.054;2023-07-28T06:52:33;7.23;;;5.53;;
5345;SDS011;2695;49.444;11.054;2023-07-28T06:55:02;8.73;;;5.80;;
5345;SDS011;2695;49.444;11.054;2023-07-28T06:57:31;6.37;;;5.27;;
5345;SDS011;2695;49.444;11.054;2023-07-28T07:00:02;0.50;;;0.40;;
5345;SDS011;2695;49.444;11.054;2023-07-28T07:02:31;0.50;;;0.40;;
5345;SDS011;2695;49.444;11.054;2023-07-28T07:04:59;0.50;;;0.40;;
5345;SDS011;2695;49.444;11.054;2023-07-28T07:07:28;0.50;;;0.40;;
5345;SDS011;2695;49.444;11.054;2023-07-28T07:10:02;0.50;;;0.50;;
5345;SDS011;2695;49.444;11.054;2023-07-28T07:12:35;0.60;;;0.60;;
5345;SDS011;2695;49.444;11.054;2023-07-28T07:15:11;0.50;;;0.40;;
5345;SDS011;2695;49.444;11.054;2023-07-28T07:17:51;0.87;;;0.80;;
5345;SDS011;2695;49.444;11.054;2023-07-28T07:20:23;1.23;;;1.03;;
5345;SDS011;2695;49.444;11.054;2023-07-28T07:22:58;0.50;;;0.40;;
5345;SDS011;2695;49.444;11.054;2023-07-28T07:25:32;0.50;;;0.50;;
5345;SDS011;2695;49.444;11.054;2023-07-28T07:28:00;0.50;;;0.40;;
5345;SDS011;2695;49.444;11.054;2023-07-28T07:30:30;0.53;;;0.50;;
5345;SDS011;2695;49.444;11.054;2023-07-28T07:33:01;0.50;;;0.40;;
5345;SDS011;2695;49.444;11.054;2023-07-28T07:35:35;1.23;;;1.23;;
5345;SDS011;2695;49.444;11.054;2023-07-28T07:38:04;0.50;;;0.40;;
5345;SDS011;2695;49.444;11.054;2023-07-28T07:40:35;0.50;;;0.50;;
5345;SDS011;2695;49.444;11.054;2023-07-28T07:43:03;0.50;;;0.40;;
5345;SDS011;2695;49.444;11.054;2023-07-28T07:45:33;0.50;;;0.40;;
5345;SDS011;2695;49.444;11.054;2023-07-28T07:48:01;0.50;;;0.40;;
5345;SDS011;2695;49.444;11.054;2023-07-28T07:50:30;0.50;;;0.40;;
5345;SDS011;2695;49.444;11.054;2023-07-28T07:52:58;0.50;;;0.40;;
5345;SDS011;2695;49.444;11.054;2023-07-28T07:55:30;0.50;;;0.40;;
5345;SDS011;2695;49.444;11.054;2023-07-28T07:58:09;0.50;;;0.40;;
5345;SDS011;2695;49.444;11.054;2023-07-28T08:00:38;0.50;;;0.40;;
5345;SDS011;2695;49.444;11.054;2023-07-28T08:03:09;0.50;;;0.40;;
5345;SDS011;2695;49.444;11.054;2023-07-28T08:05:48;0.50;;;0.40;;
5345;SDS011;2695;49.444;11.054;2023-07-28T08:08:22;0.50;;;0.40;;
5345;SDS011;2695;49.444;11.054;2023-07-28T08:10:53;0.50;;;0.47;;
5345;SDS011;2695;49.444;11.054;2023-07-28T08:13:23;0.50;;;0.40;;
5345;SDS011;2695;49.444;11.054;2023-07-28T08:15:56;0.63;;;0.60;;
5345;SDS011;2695;49.444;11.054;2023-07-28T08:18:45;0.50;;;0.40;;
5345;SDS011;2695;49.444;11.054;2023-07-28T08:21:21;0.50;;;0.40;;
5345;SDS011;2695;49.444;11.054;2023-07-28T08:23:53;0.50;;;0.40;;
5345;SDS011;2695;49.444;11.054;2023-07-28T08:26:23;0.50;;;0.40;;
5345;SDS011;2695;49.444;11.054;2023-07-28T08:28:53;0.50;;;0.40;;
5345;SDS011;2695;49.444;11.054;2023-07-28T08:31:23;0.50;;;0.40;;
5345;SDS011;2695;49.444;11.054;2023-07-28T08:33:51;3.70;;;2.63;;
5345;SDS011;2695;49.444;11.054;2023-07-28T08:36:19;4.30;;;3.17;;
5345;SDS011;2695;49.444;11.054;2023-07-28T08:38:47;6.87;;;3.07;;
5345;SDS011;2695;49.444;11.054;2023-07-28T08:41:15;4.07;;;2.50;;
5345;SDS011;2695;49.444;11.054;2023-07-28T08:43:46;6.07;;;3.00;;
5345;SDS011;2695;49.444;11.054;2023-07-28T08:46:23;3.07;;;2.80;;
5345;SDS011;2695;49.444;11.054;2023-07-28T08:49:47;3.07;;;2.43;;
5345;SDS011;2695;49.444;11.054;2023-07-28T08:52:20;4.77;;;2.53;;
5345;SDS011;2695;49.444;11.054;2023-07-28T08:54:57;3.50;;;2.77;;
5345;SDS011;2695;49.444;11.054;2023-07-28T09:00:47;2.93;;;2.50;;
5345;SDS011;2695;49.444;11.054;2023-07-28T09:03:22;5.03;;;2.63;;
5345;SDS011;2695;49.444;11.054;2023-07-28T09:06:10;3.57;;;3.10;;
5345;SDS011;2695;49.444;11.054;2023-07-28T09:08:46;1.90;;;1.80;;
5345;SDS011;2695;49.444;11.054;2023-07-28T09:11:43;3.87;;;2.70;;
5345;SDS011;2695;49.444;11.054;2023-07-28T09:14:34;3.07;;;2.60;;
5345;SDS011;2695;49.444;11.054;2023-07-28T09:17:07;3.17;;;2.87;;
5345;SDS011;2695;49.444;11.054;2023-07-28T09:19:53;2.40;;;2.17;;
5345;SDS011;2695;49.444;11.054;2023-07-28T09:22:25;4.50;;;2.57;;
5345;SDS011;2695;49.444;11.054;2023-07-28T09:24:56;2.53;;;2.30;;
5345;SDS011;2695;49.444;11.054;2023-07-28T09:27:38;2.73;;;2.30;;
5345;SDS011;2695;49.444;11.054;2023-07-28T09:30:07;3.80;;;2.40;;
5345;SDS011;2695;49.444;11.054;2023-07-28T09:32:35;3.60;;;2.50;;
5345;SDS011;2695;49.444;11.054;2023-07-28T09:35:08;2.50;;;2.20;;
5345;SDS011;2695;49.444;11.054;2023-07-28T09:37:39;2.07;;;1.83;;
5345;SDS011;2695;49.444;11.054;2023-07-28T09:40:09;3.20;;;1.87;;
5345;SDS011;2695;49.444;11.054;2023-07-28T09:42:39;2.87;;;2.20;;
5345;SDS011;2695;49.444;11.054;2023-07-28T09:45:07;4.27;;;2.40;;
5345;SDS011;2695;49.444;11.054;2023-07-28T09:47:57;4.13;;;1.77;;
5345;SDS011;2695;49.444;11.054;2023-07-28T09:50:29;1.70;;;1.60;;
5345;SDS011;2695;49.444;11.054;2023-07-28T09:53:02;1.50;;;1.40;;
5345;SDS011;2695;49.444;11.054;2023-07-28T09:55:31;1.70;;;1.60;;
5345;SDS011;2695;49.444;11.054;2023-07-28T09:58:04;4.60;;;1.53;;
5345;SDS011;2695;49.444;11.054;2023-07-28T10:00:39;3.43;;;1.33;;
5345;SDS011;2695;49.444;11.054;2023-07-28T10:03:08;1.43;;;1.33;;
5345;SDS011;2695;49.444;11.054;2023-07-28T10:05:44;1.60;;;1.47;;
5345;SDS011;2695;49.444;11.054;2023-07-28T10:15:01;1.60;;;1.50;;
5345;SDS011;2695;49.444;11.054;2023-07-28T10:17:32;2.23;;;1.30;;
5345;SDS011;2695;49.444;11.054;2023-07-28T10:20:02;2.10;;;0.93;;
5345;SDS011;2695;49.444;11.054;2023-07-28T10:22:42;1.07;;;0.97;;
5345;SDS011;2695;49.444;11.054;2023-07-28T10:25:12;1.47;;;1.27;;
5345;SDS011;2695;49.444;11.054;2023-07-28T10:27:50;1.47;;;1.03;;
5345;SDS011;2695;49.444;11.054;2023-07-28T10:30:25;1.83;;;1.50;;
5345;SDS011;2695;49.444;11.054;2023-07-28T10:32:54;1.13;;;1.00;;
5345;SDS011;2695;49.444;11.054;2023-07-28T10:35:23;1.60;;;1.50;;
5345;SDS011;2695;49.444;11.054;2023-07-28T10:37:53;1.83;;;1.30;;
5345;SDS011;2695;49.444;11.054;2023-07-28T10:43:27;3.73;;;1.53;;
5345;SDS011;2695;49.444;11.054;2023-07-28T10:45:56;3.60;;;1.70;;
5345;SDS011;2695;49.444;11.054;2023-07-28T10:48:24;1.77;;;1.37;;
5345;SDS011;2695;49.444;11.054;2023-07-28T10:50:53;3.33;;;1.43;;
5345;SDS011;2695;49.444;11.054;2023-07-28T10:53:21;1.27;;;1.17;;
5345;SDS011;2695;49.444;11.054;2023-07-28T10:55:49;1.75;;;1.50;;
5345;SDS011;2695;49.444;11.054;2023-07-28T10:58:17;1.35;;;1.25;;
5345;SDS011;2695;49.444;11.054;2023-07-28T11:00:48;1.30;;;1.20;;
5345;SDS011;2695;49.444;11.054;2023-07-28T11:03:18;1.30;;;1.20;;
5345;SDS011;2695;49.444;11.054;2023-07-28T11:08:40;1.40;;;1.00;;
5345;SDS011;2695;49.444;11.054;2023-07-28T11:11:12;3.80;;;1.25;;
5345;SDS011;2695;49.444;11.054;2023-07-28T11:13:41;3.92;;;1.50;;
5345;SDS011;2695;49.444;11.054;2023-07-28T11:16:11;1.50;;;1.40;;
5345;SDS011;2695;49.444;11.054;2023-07-28T11:18:40;4.40;;;1.77;;
5345;SDS011;2695;49.444;11.054;2023-07-28T11:21:08;1.55;;;1.27;;
5345;SDS011;2695;49.444;11.054;2023-07-28T11:23:36;2.65;;;1.67;;
5345;SDS011;2695;49.444;11.054;2023-07-28T11:26:06;2.95;;;1.50;;
5345;SDS011;2695;49.444;11.054;2023-07-28T11:28:38;2.55;;;1.23;;
5345;SDS011;2695;49.444;11.054;2023-07-28T11:31:06;1.13;;;0.90;;
5345;SDS011;2695;49.444;11.054;2023-07-28T11:33:37;1.90;;;1.33;;
5345;SDS011;2695;49.444;11.054;2023-07-28T11:36:06;1.33;;;1.23;;
5345;SDS011;2695;49.444;11.054;2023-07-28T11:38:34;1.10;;;1.00;;
5345;SDS011;2695;49.444;11.054;2023-07-28T11:41:04;1.00;;;0.90;;
5345;SDS011;2695;49.444;11.054;2023-07-28T11:43:33;1.20;;;1.10;;
5345;SDS011;2695;49.444;11.054;2023-07-28T11:46:01;2.55;;;1.40;;
5345;SDS011;2695;49.444;11.054;2023-07-28T11:48:41;1.27;;;1.17;;
5345;SDS011;2695;49.444;11.054;2023-07-28T11:51:12;1.48;;;1.20;;
5345;SDS011;2695;49.444;11.054;2023-07-28T11:53:40;2.60;;;1.58;;
5345;SDS011;2695;49.444;11.054;2023-07-28T11:56:09;2.22;;;1.50;;
5345;SDS011;2695;49.444;11.054;2023-07-28T11:58:37;1.17;;;1.00;;
5345;SDS011;2695;49.444;11.054;2023-07-28T12:01:07;3.08;;;1.27;;
5345;SDS011;2695;49.444;11.054;2023-07-28T12:03:36;2.72;;;1.52;;
5345;SDS011;2695;49.444;11.054;2023-07-28T12:06:06;1.92;;;1.48;;
5345;SDS011;2695;49.444;11.054;2023-07-28T12:08:39;2.28;;;1.60;;
5345;SDS011;2695;49.444;11.054;2023-07-28T12:11:11;1.27;;;1.17;;
5345;SDS011;2695;49.444;11.054;2023-07-28T12:13:47;3.80;;;1.48;;
5345;SDS011;2695;49.444;11.054;2023-07-28T12:16:31;2.35;;;1.48;;
5345;SDS011;2695;49.444;11.054;2023-07-28T12:19:25;1.45;;;1.35;;
5345;SDS011;2695;49.444;11.054;2023-07-28T12:21:55;1.77;;;1.08;;
5345;SDS011;2695;49.444;11.054;2023-07-28T12:24:23;1.23;;;1.13;;
5345;SDS011;2695;49.444;11.054;2023-07-28T12:26:51;2.45;;;1.20;;
5345;SDS011;2695;49.444;11.054;2023-07-28T12:29:19;2.28;;;1.20;;
5345;SDS011;2695;49.444;11.054;2023-07-28T12:32:02;1.73;;;1.63;;
5345;SDS011;2695;49.444;11.054;2023-07-28T12:34:32;3.42;;;1.80;;
5345;SDS011;2695;49.444;11.054;2023-07-28T12:37:17;1.30;;;1.20;;
5345;SDS011;2695;49.444;11.054;2023-07-28T12:40:22;1.20;;;1.10;;
5345;SDS011;2695;49.444;11.054;2023-07-28T12:42:53;1.25;;;1.15;;
5345;SDS011;2695;49.444;11.054;2023-07-28T12:45:25;2.28;;;1.60;;
5345;SDS011;2695;49.444;11.054;2023-07-28T12:48:13;4.63;;;1.48;;
5345;SDS011;2695;49.444;11.054;2023-07-28T12:50:44;1.92;;;1.20;;
5345;SDS011;2695;49.444;11.054;2023-07-28T12:53:14;1.67;;;1.40;;
5345;SDS011;2695;49.444;11.054;2023-07-28T12:55:48;1.75;;;1.23;;
5345;SDS011;2695;49.444;11.054;2023-07-28T12:58:20;1.40;;;1.08;;
5345;SDS011;2695;49.444;11.054;2023-07-28T13:00:51;1.50;;;1.40;;
5345;SDS011;2695;49.444;11.054;2023-07-28T13:03:24;1.88;;;1.10;;
5345;SDS011;2695;49.444;11.054;2023-07-28T13:05:52;8.00;;;3.03;;
5345;SDS011;2695;49.444;11.054;2023-07-28T13:08:22;1.80;;;1.55;;
5345;SDS011;2695;49.444;11.054;2023-07-28T13:10:53;6.68;;;1.50;;
5345;SDS011;2695;49.444;11.054;2023-07-28T13:13:24;2.17;;;1.83;;
5345;SDS011;2695;49.444;11.054;2023-07-28T13:15:53;3.35;;;1.83;;
5345;SDS011;2695;49.444;11.054;2023-07-28T13:18:21;1.50;;;1.40;;
5345;SDS011;2695;49.444;11.054;2023-07-28T13:20:50;1.45;;;1.20;;
5345;SDS011;2695;49.444;11.054;2023-07-28T13:23:18;1.58;;;1.38;;
5345;SDS011;2695;49.444;11.054;2023-07-28T13:25:47;4.47;;;2.33;;
5345;SDS011;2695;49.444;11.054;2023-07-28T13:28:15;1.20;;;1.10;;
5345;SDS011;2695;49.444;11.054;2023-07-28T13:30:44;1.33;;;1.23;;
5345;SDS011;2695;49.444;11.054;2023-07-28T13:33:12;2.45;;;1.33;;
5345;SDS011;2695;49.444;11.054;2023-07-28T13:35:41;1.88;;;1.10;;
5345;SDS011;2695;49.444;11.054;2023-07-28T13:38:09;1.58;;;1.15;;
5345;SDS011;2695;49.444;11.054;2023-07-28T13:40:37;2.20;;;1.60;;
5345;SDS011;2695;49.444;11.054;2023-07-28T13:43:06;2.40;;;1.33;;
5345;SDS011;2695;49.444;11.054;2023-07-28T13:45:42;2.95;;;1.40;;
5345;SDS011;2695;49.444;11.054;2023-07-28T13:48:10;1.20;;;1.10;;
5345;SDS011;2695;49.444;11.054;2023-07-28T13:50:41;2.00;;;1.60;;
5345;SDS011;2695;49.444;11.054;2023-07-28T13:53:20;1.42;;;1.10;;
5345;SDS011;2695;49.444;11.054;2023-07-28T13:55:51;3.30;;;1.50;;
5345;SDS011;2695;49.444;11.054;2023-07-28T13:58:23;4.57;;;1.38;;
5345;SDS011;2695;49.444;11.054;2023-07-28T14:00:51;1.70;;;1.60;;
5345;SDS011;2695;49.444;11.054;2023-07-28T14:03:19;1.58;;;1.20;;
5345;SDS011;2695;49.444;11.054;2023-07-28T14:05:48;2.53;;;1.50;;
5345;SDS011;2695;49.444;11.054;2023-07-28T14:08:16;1.60;;;1.50;;
5345;SDS011;2695;49.444;11.054;2023-07-28T14:10:44;1.40;;;1.10;;
5345;SDS011;2695;49.444;11.054;2023-07-28T14:13:12;1.83;;;1.38;;
5345;SDS011;2695;49.444;11.054;2023-07-28T14:15:42;6.95;;;1.48;;
5345;SDS011;2695;49.444;11.054;2023-07-28T14:18:11;3.30;;;1.70;;
5345;SDS011;2695;49.444;11.054;2023-07-28T14:20:39;1.33;;;1.20;;
5345;SDS011;2695;49.444;11.054;2023-07-28T14:23:20;1.38;;;1.25;;
5345;SDS011;2695;49.444;11.054;2023-07-28T14:25:49;1.80;;;1.70;;
5345;SDS011;2695;49.444;11.054;2023-07-28T14:28:18;1.77;;;1.60;;
5345;SDS011;2695;49.444;11.054;2023-07-28T14:30:49;4.25;;;2.00;;
5345;SDS011;2695;49.444;11.054;2023-07-28T14:33:18;2.80;;;2.17;;
5345;SDS011;2695;49.444;11.054;2023-07-28T14:35:47;2.72;;;1.40;;
5345;SDS011;2695;49.444;11.054;2023-07-28T14:38:16;2.33;;;1.52;;
5345;SDS011;2695;49.444;11.054;2023-07-28T14:40:45;1.50;;;1.40;;
5345;SDS011;2695;49.444;11.054;2023-07-28T14:43:20;3.97;;;1.48;;
5345;SDS011;2695;49.444;11.054;2023-07-28T14:45:50;1.42;;;1.33;;
5345;SDS011;2695;49.444;11.054;2023-07-28T14:48:18;1.35;;;1.25;;
5345;SDS011;2695;49.444;11.054;2023-07-28T14:50:47;1.92;;;1.48;;
5345;SDS011;2695;49.444;11.054;2023-07-28T14:53:31;4.57;;;1.88;;
5345;SDS011;2695;49.444;11.054;2023-07-28T14:56:15;1.20;;;1.10;;
5345;SDS011;2695;49.444;11.054;2023-07-28T14:58:51;2.55;;;1.70;;
5345;SDS011;2695;49.444;11.054;2023-07-28T15:01:27;1.58;;;1.48;;
5345;SDS011;2695;49.444;11.054;2023-07-28T15:03:55;3.92;;;1.67;;
5345;SDS011;2695;49.444;11.054;2023-07-28T15:06:32;2.88;;;1.80;;
5345;SDS011;2695;49.444;11.054;2023-07-28T15:09:00;2.17;;;1.70;;
5345;SDS011;2695;49.444;11.054;2023-07-28T15:11:32;2.25;;;1.90;;
5345;SDS011;2695;49.444;11.054;2023-07-28T15:14:01;1.63;;;1.50;;
5345;SDS011;2695;49.444;11.054;2023-07-28T15:16:31;2.30;;;1.73;;
5345;SDS011;2695;49.444;11.054;2023-07-28T15:19:00;1.87;;;1.67;;
5345;SDS011;2695;49.444;11.054;2023-07-28T15:21:28;2.15;;;1.65;;
5345;SDS011;2695;49.444;11.054;2023-07-28T15:23:56;1.42;;;1.33;;
5345;SDS011;2695;49.444;11.054;2023-07-28T15:26:25;1.50;;;1.40;;
5345;SDS011;2695;49.444;11.054;2023-07-28T15:28:53;1.37;;;1.27;;
5345;SDS011;2695;49.444;11.054;2023-07-28T15:31:23;2.13;;;1.92;;
5345;SDS011;2695;49.444;11.054;2023-07-28T15:33:52;2.53;;;2.07;;
5345;SDS011;2695;49.444;11.054;2023-07-28T15:36:20;1.60;;;1.50;;
5345;SDS011;2695;49.444;11.054;2023-07-28T15:38:49;3.00;;;1.53;;